Time;durP1;ratioP1;P1;durP2;ratioP2;P2;SDS_P1;SDS_P2;PMS_P1;PMS_P2;Temp;Humidity;BMP_temperature;BMP_pressure;BME280_temperature;BME280_humidity;BME280_pressure;Samples;Min_cycle;Max_cycle;Signal;HPM_P1;HPM_P2
2022/10/17 00:01:06;;;;;;;34.20;16.70;;;;;;;11.93;89.04;101143.38;103306;1283;22493;-66
2022/10/17 00:03:39;;;;;;;39.50;21.20;;;;;;;11.87;88.98;101141.65;103433;1306;22525;-66
2022/10/17 00:06:13;;;;;;;34.00;17.40;;;;;;;11.85;89.67;101141.90;103438;1282;24273;-66
2022/10/17 00:08:45;;;;;;;35.80;18.90;;;;;;;11.87;89.44;101141.55;103266;1306;24339;-66
2022/10/17 00:11:20;;;;;;;37.60;18.80;;;;;;;11.88;89.28;101142.48;103305;1283;22713;-65
2022/10/17 00:13:54;;;;;;;35.40;18.00;;;;;;;11.89;89.18;101142.30;103340;1306;22475;-66
2022/10/17 00:16:29;;;;;;;35.90;18.80;;;;;;;11.88;89.25;101140.73;103256;1298;22465;-66
2022/10/17 00:19:01;;;;;;;40.90;19.60;;;;;;;11.87;89.15;101138.55;103413;1305;25399;-66
2022/10/17 00:21:34;;;;;;;39.40;20.00;;;;;;;11.87;89.41;101137.19;103331;1283;22434;-66
2022/10/17 00:24:06;;;;;;;40.00;18.10;;;;;;;11.88;89.31;101128.90;103208;1285;22550;-65
2022/10/17 00:26:37;;;;;;;37.90;19.00;;;;;;;11.88;89.59;101133.52;103523;1306;25541;-67
2022/10/17 00:29:08;;;;;;;36.30;20.10;;;;;;;11.90;89.86;101132.27;103309;1284;22472;-65
2022/10/17 00:31:40;;;;;;;36.40;20.60;;;;;;;11.90;90.10;101131.83;103375;1276;22398;-66
2022/10/17 00:34:11;;;;;;;36.10;18.90;;;;;;;11.91;90.14;101132.82;103421;1285;26777;-66
2022/10/17 00:36:43;;;;;;;37.10;19.60;;;;;;;11.92;90.23;101136.39;103282;1306;22473;-66
2022/10/17 00:39:16;;;;;;;37.50;19.80;;;;;;;11.92;90.31;101135.77;103371;1282;22550;-67
2022/10/17 00:41:47;;;;;;;39.70;21.30;;;;;;;11.90;90.35;101137.70;103348;1285;23310;-66
2022/10/17 00:44:48;;;;;;;39.30;20.60;;;;;;;11.88;90.34;101137.52;103406;1284;22528;-66
2022/10/17 00:47:22;;;;;;;38.80;20.90;;;;;;;11.86;90.37;101134.11;102946;1287;22483;-66
2022/10/17 00:49:54;;;;;;;40.00;20.20;;;;;;;11.82;90.34;101136.52;103156;1309;22472;-67
2022/10/17 00:52:28;;;;;;;41.20;20.00;;;;;;;11.79;90.47;101142.71;103383;1280;22464;-66
2022/10/17 00:55:02;;;;;;;34.20;17.90;;;;;;;11.78;90.83;101147.30;102840;1310;22556;-66
2022/10/17 00:57:35;;;;;;;42.00;19.90;;;;;;;11.79;90.77;101149.86;102821;1287;22485;-66
2022/10/17 01:00:12;;;;;;;36.70;20.50;;;;;;;11.78;90.73;101152.05;102775;1288;22598;-67
2022/10/17 01:02:44;;;;;;;33.80;18.60;;;;;;;11.76;90.69;101151.25;103067;1287;25853;-66
2022/10/17 01:05:17;;;;;;;33.70;18.70;;;;;;;11.75;90.60;101150.66;103071;1286;24263;-65
2022/10/17 01:07:52;;;;;;;37.90;20.20;;;;;;;11.73;90.54;101152.44;103112;1309;25642;-66
2022/10/17 01:10:26;;;;;;;34.60;17.50;;;;;;;11.70;90.66;101146.86;103252;1288;22485;-67
2022/10/17 01:13:11;;;;;;;36.10;18.70;;;;;;;11.69;90.47;101146.59;103114;1309;22559;-65
2022/10/17 01:15:58;;;;;;;33.20;18.60;;;;;;;11.64;90.56;101151.90;102982;1285;22539;-66
2022/10/17 01:18:38;;;;;;;42.70;20.30;;;;;;;11.60;90.74;101149.37;103059;1294;26716;-66
2022/10/17 01:21:26;;;;;;;42.20;20.20;;;;;;;11.58;90.71;101151.60;103126;1286;22615;-66
2022/10/17 01:24:24;;;;;;;39.10;19.70;;;;;;;11.57;90.60;101152.86;103006;1294;24267;-66
2022/10/17 01:27:23;;;;;;;41.60;21.70;;;;;;;11.55;90.70;101147.50;103318;1283;22472;-67
2022/10/17 01:30:11;;;;;;;38.00;19.80;;;;;;;11.56;90.84;101142.73;102798;1291;26015;-66
2022/10/17 01:32:48;;;;;;;41.20;21.90;;;;;;;11.58;91.00;101142.25;102807;1312;22595;-66
2022/10/17 01:35:26;;;;;;;39.10;19.70;;;;;;;11.59;91.11;101142.74;102948;1312;22500;-67
2022/10/17 01:38:06;;;;;;;41.00;20.90;;;;;;;11.59;91.11;101142.91;102910;1312;22771;-66
2022/10/17 01:40:43;;;;;;;38.10;20.70;;;;;;;11.60;91.41;101145.92;102777;1312;22547;-67
2022/10/17 01:43:19;;;;;;;39.10;21.00;;;;;;;11.60;91.61;101150.16;103165;1290;22444;-68
2022/10/17 01:45:53;;;;;;;37.60;21.10;;;;;;;11.59;91.65;101150.98;102833;1312;22613;-66
2022/10/17 01:48:31;;;;;;;35.90;20.70;;;;;;;11.58;91.84;101157.33;102893;1290;22480;-66
2022/10/17 01:51:09;;;;;;;38.50;21.20;;;;;;;11.58;91.68;101152.63;102758;1290;22486;-65
2022/10/17 01:53:44;;;;;;;48.10;21.70;;;;;;;11.59;91.58;101151.45;102741;1289;22475;-66
2022/10/17 01:56:17;;;;;;;37.30;20.60;;;;;;;11.59;91.50;101150.43;102737;1312;22594;-67
2022/10/17 01:58:53;;;;;;;37.80;20.40;;;;;;;11.56;91.42;101154.86;102846;1312;22599;-66
2022/10/17 02:01:26;;;;;;;37.80;19.90;;;;;;;11.54;91.44;101157.76;103204;1290;22485;-66
2022/10/17 02:03:59;;;;;;;39.40;20.10;;;;;;;11.52;91.35;101153.28;102906;1290;22545;-66
2022/10/17 02:06:34;;;;;;;38.80;20.60;;;;;;;11.51;91.46;101150.69;102651;1289;22566;-66
2022/10/17 02:09:19;;;;;;;36.10;18.50;;;;;;;11.50;91.20;101143.40;103145;1285;24258;-66
2022/10/17 02:12:04;;;;;;;42.60;19.60;;;;;;;11.48;91.17;101144.41;103362;1284;25658;-67
2022/10/17 02:14:45;;;;;;;40.50;19.50;;;;;;;11.47;91.07;101139.05;103368;1281;25266;-66
2022/10/17 02:17:27;;;;;;;40.40;19.30;;;;;;;11.45;91.16;101140.56;103389;1283;24358;-66
2022/10/17 02:20:10;;;;;;;38.40;21.10;;;;;;;11.43;91.28;101137.85;103252;1306;26021;-66
2022/10/17 02:22:47;;;;;;;42.70;19.90;;;;;;;11.39;91.31;101139.42;103418;1306;25457;-66
2022/10/17 02:25:27;;;;;;;40.20;21.00;;;;;;;11.35;91.31;101138.08;103315;1282;22412;-66
2022/10/17 02:28:06;;;;;;;38.60;19.90;;;;;;;11.32;91.47;101134.13;103257;1281;22595;-66
2022/10/17 02:30:41;;;;;;;45.90;21.80;;;;;;;11.31;91.52;101129.72;103207;1279;24346;-66
2022/10/17 02:33:17;;;;;;;39.20;20.70;;;;;;;11.31;91.65;101128.11;103264;1284;22702;-65
2022/10/17 02:35:52;;;;;;;44.20;21.30;;;;;;;11.33;92.13;101131.40;103363;1297;24817;-66
2022/10/17 02:38:25;;;;;;;37.70;21.90;;;;;;;11.33;92.10;101130.03;103314;1306;24264;-66
2022/10/17 02:40:57;;;;;;;39.70;22.90;;;;;;;11.33;92.43;101141.28;103349;1306;22586;-67
2022/10/17 02:43:28;;;;;;;40.30;24.10;;;;;;;11.34;92.48;101153.48;103296;1277;27193;-66
2022/10/17 02:46:00;;;;;;;46.00;23.80;;;;;;;11.34;92.77;101162.42;103282;1300;22573;-66
2022/10/17 02:48:38;;;;;;;40.60;21.70;;;;;;;11.33;92.72;101165.66;103221;1284;24680;-67
2022/10/17 02:51:15;;;;;;;40.10;21.90;;;;;;;11.30;92.68;101167.31;103260;1306;24218;-67
2022/10/17 02:53:53;;;;;;;40.00;22.30;;;;;;;11.29;92.54;101178.14;103271;1277;23181;-66
2022/10/17 02:56:29;;;;;;;37.10;20.70;;;;;;;11.28;92.35;101174.80;103387;1275;25295;-66
2022/10/17 02:59:03;;;;;;;40.00;22.30;;;;;;;11.27;92.33;101175.02;103317;1306;25669;-66
2022/10/17 03:01:35;;;;;;;37.70;19.90;;;;;;;11.23;92.19;101175.09;103298;1291;22569;-66
2022/10/17 03:04:13;;;;;;;37.00;20.50;;;;;;;11.23;92.08;101176.08;103208;1291;22521;-66
2022/10/17 03:06:45;;;;;;;39.30;21.40;;;;;;;11.23;92.27;101178.11;103439;1283;24299;-66
2022/10/17 03:09:16;;;;;;;47.00;25.00;;;;;;;11.24;92.27;101183.23;103256;1285;24430;-67
2022/10/17 03:11:48;;;;;;;43.00;22.70;;;;;;;11.23;92.40;101186.36;103313;1306;26724;-67
2022/10/17 03:14:19;;;;;;;39.30;23.50;;;;;;;11.22;92.38;101189.11;103328;1284;22511;-66
2022/10/17 03:16:51;;;;;;;37.20;21.00;;;;;;;11.19;92.33;101187.48;103352;1306;25478;-67
2022/10/17 03:19:22;;;;;;;41.10;21.40;;;;;;;11.14;92.41;101191.38;103410;1281;22520;-67
2022/10/17 03:21:55;;;;;;;38.10;22.10;;;;;;;11.08;92.34;101195.61;103266;1306;25168;-66
2022/10/17 03:24:26;;;;;;;38.90;21.40;;;;;;;11.03;92.57;101197.45;103279;1282;25932;-66
2022/10/17 03:26:58;;;;;;;37.60;20.60;;;;;;;11.00;92.36;101194.07;103308;1285;22604;-66
2022/10/17 03:29:30;;;;;;;35.20;19.50;;;;;;;10.96;92.31;101193.10;103264;1281;22477;-67
2022/10/17 03:32:01;;;;;;;32.80;18.40;;;;;;;10.94;92.20;101192.08;103379;1288;22476;-66
2022/10/17 03:34:32;;;;;;;35.70;19.80;;;;;;;10.92;92.15;101191.50;103252;1274;24580;-66
2022/10/17 03:37:04;;;;;;;36.50;19.20;;;;;;;10.92;92.14;101185.55;103207;1299;25163;-66
2022/10/17 03:39:36;;;;;;;36.20;19.00;;;;;;;10.92;92.25;101181.29;103266;1306;22512;-66
2022/10/17 03:42:07;;;;;;;37.40;20.20;;;;;;;10.93;92.37;101189.48;103158;1285;22421;-66
2022/10/17 03:44:39;;;;;;;41.80;20.60;;;;;;;10.92;92.44;101192.40;103170;1300;24257;-68
2022/10/17 03:47:10;;;;;;;41.30;21.40;;;;;;;10.90;92.49;101190.06;103241;1306;28904;-65
2022/10/17 03:49:42;;;;;;;46.00;23.10;;;;;;;10.87;92.41;101190.84;103189;1306;22476;-67
2022/10/17 03:52:14;;;;;;;40.60;22.20;;;;;;;10.84;92.68;101189.83;103326;1291;22417;-66
2022/10/17 03:54:46;;;;;;;42.20;22.00;;;;;;;10.81;92.78;101192.19;103194;1285;23929;-66
2022/10/17 03:57:17;;;;;;;40.70;21.10;;;;;;;10.80;92.79;101195.59;103342;1306;25383;-66
2022/10/17 03:59:50;;;;;;;42.90;22.20;;;;;;;10.77;92.70;101202.23;103255;1285;22495;-66
2022/10/17 04:02:21;;;;;;;38.80;19.60;;;;;;;10.74;93.16;101209.54;103941;1292;22597;-67
2022/10/17 04:04:52;;;;;;;44.00;22.20;;;;;;;10.70;93.15;101205.30;103402;1306;24399;-66
2022/10/17 04:07:24;;;;;;;41.90;20.90;;;;;;;10.68;92.83;101200.35;103271;1285;22466;-66
2022/10/17 04:09:55;;;;;;;38.30;20.70;;;;;;;10.64;92.70;101205.47;103394;1306;22614;-66
2022/10/17 04:12:26;;;;;;;38.10;20.10;;;;;;;10.58;92.63;101211.39;103351;1278;24477;-67
2022/10/17 04:14:58;;;;;;;34.40;18.00;;;;;;;10.54;92.56;101211.70;103382;1306;23894;-66
2022/10/17 04:17:31;;;;;;;38.30;18.80;;;;;;;10.51;92.54;101211.82;103264;1300;25489;-66
2022/10/17 04:20:03;;;;;;;36.00;18.60;;;;;;;10.49;92.44;101213.35;103347;1306;22479;-66
2022/10/17 04:22:35;;;;;;;34.80;18.40;;;;;;;10.47;92.43;101215.56;103206;1281;22473;-66
2022/10/17 04:25:08;;;;;;;36.90;19.40;;;;;;;10.48;92.47;101214.82;103375;1278;22593;-66
2022/10/17 04:27:39;;;;;;;36.10;19.00;;;;;;;10.48;92.45;101210.75;103346;1306;24375;-66
2022/10/17 04:30:12;;;;;;;37.30;19.30;;;;;;;10.49;92.42;101211.42;103371;1275;24352;-67
2022/10/17 04:32:43;;;;;;;43.20;21.90;;;;;;;10.49;92.71;101213.25;103360;1306;24407;-66
2022/10/17 04:35:15;;;;;;;42.50;20.50;;;;;;;10.49;92.66;101219.30;103351;1306;22493;-66
2022/10/17 04:37:47;;;;;;;40.10;22.20;;;;;;;10.49;92.57;101218.85;103285;1285;24240;-66
2022/10/17 04:40:19;;;;;;;40.40;21.60;;;;;;;10.49;92.82;101211.98;103428;1280;22477;-66
2022/10/17 04:42:51;;;;;;;43.80;23.70;;;;;;;10.50;92.81;101211.40;103290;1285;25542;-67
2022/10/17 04:45:22;;;;;;;43.50;23.70;;;;;;;10.50;93.12;101209.95;103235;1285;23890;-66
2022/10/17 04:47:55;;;;;;;50.40;25.40;;;;;;;10.51;93.35;101212.88;103234;1281;22539;-66
2022/10/17 04:50:26;;;;;;;46.30;24.20;;;;;;;10.51;93.57;101214.23;103357;1288;25489;-66
2022/10/17 04:52:57;;;;;;;45.40;23.80;;;;;;;10.51;93.62;101215.65;103276;1306;22479;-66
2022/10/17 04:55:31;;;;;;;45.00;24.50;;;;;;;10.52;93.58;101213.96;103182;1283;22481;-67
2022/10/17 04:58:05;;;;;;;47.90;25.40;;;;;;;10.53;93.66;101217.35;103243;1285;22459;-68
2022/10/17 05:00:37;;;;;;;44.10;24.50;;;;;;;10.54;93.79;101219.63;103199;1282;22478;-67
2022/10/17 05:03:09;;;;;;;46.10;24.50;;;;;;;10.55;93.92;101218.39;103293;1283;25527;-67
2022/10/17 05:05:42;;;;;;;44.10;23.50;;;;;;;10.54;93.86;101213.86;103239;1281;22489;-67
2022/10/17 05:08:16;;;;;;;45.40;23.80;;;;;;;10.55;93.93;101215.33;103320;1285;26483;-68
2022/10/17 05:10:50;;;;;;;45.00;25.10;;;;;;;10.55;94.08;101218.47;103199;1282;22627;-67
2022/10/17 05:13:22;;;;;;;46.40;24.00;;;;;;;10.56;94.10;101217.08;103265;1282;22709;-68
2022/10/17 05:15:53;;;;;;;50.10;25.20;;;;;;;10.55;94.44;101216.70;103260;1284;22513;-67
2022/10/17 05:18:25;;;;;;;42.10;23.70;;;;;;;10.55;94.19;101217.77;103457;1306;24261;-67
2022/10/17 05:20:56;;;;;;;50.00;25.10;;;;;;;10.54;94.42;101219.98;103224;1285;22600;-67
2022/10/17 05:23:29;;;;;;;45.10;23.40;;;;;;;10.55;94.42;101223.66;103393;1278;22481;-67
2022/10/17 05:26:01;;;;;;;50.50;25.20;;;;;;;10.56;94.40;101229.11;103456;1277;24283;-67
2022/10/17 05:28:32;;;;;;;46.00;24.20;;;;;;;10.57;94.55;101231.39;103234;1306;22486;-68
2022/10/17 05:31:06;;;;;;;47.70;25.30;;;;;;;10.58;94.64;101233.45;103288;1298;22658;-68
2022/10/17 05:33:38;;;;;;;53.60;27.50;;;;;;;10.58;94.70;101238.94;103435;1306;22523;-67
2022/10/17 05:36:10;;;;;;;54.10;27.30;;;;;;;10.58;94.65;101242.85;103361;1301;22491;-68
2022/10/17 05:38:42;;;;;;;58.10;29.80;;;;;;;10.58;94.71;101254.48;103495;1301;24263;-68
2022/10/17 05:41:13;;;;;;;54.50;29.90;;;;;;;10.58;94.80;101255.61;103383;1306;25934;-67
2022/10/17 05:43:45;;;;;;;51.40;27.20;;;;;;;10.58;94.87;101257.45;103418;1306;23911;-67
2022/10/17 05:46:19;;;;;;;48.70;25.90;;;;;;;10.59;94.73;101264.42;103179;1298;22644;-67
2022/10/17 05:48:50;;;;;;;44.30;24.50;;;;;;;10.58;94.84;101265.81;103337;1285;22467;-67
2022/10/17 05:51:21;;;;;;;44.90;22.70;;;;;;;10.57;95.02;101267.04;103364;1291;23983;-68
2022/10/17 05:53:53;;;;;;;41.90;21.40;;;;;;;10.58;95.02;101266.00;103201;1282;25713;-68
2022/10/17 05:56:25;;;;;;;48.70;26.60;;;;;;;10.59;94.77;101272.64;103278;1306;22490;-67
2022/10/17 05:58:57;;;;;;;47.30;25.20;;;;;;;10.60;94.83;101277.15;103385;1286;25328;-68
2022/10/17 06:01:29;;;;;;;46.80;25.00;;;;;;;10.61;95.01;101282.86;103354;1285;22553;-67
2022/10/17 06:04:00;;;;;;;46.40;24.00;;;;;;;10.62;95.15;101284.60;103318;1291;24725;-67
2022/10/17 06:06:31;;;;;;;52.80;26.30;;;;;;;10.62;95.34;101286.02;103288;1306;22728;-68
2022/10/17 06:09:03;;;;;;;43.20;23.70;;;;;;;10.63;95.29;101287.83;103606;1282;22609;-68
2022/10/17 06:11:35;;;;;;;44.40;22.90;;;;;;;10.65;95.15;101285.90;104240;1285;22481;-68
2022/10/17 06:14:07;;;;;;;61.10;28.40;;;;;;;10.68;95.13;101286.55;103437;1308;22538;-67
2022/10/17 06:16:38;;;;;;;59.50;30.00;;;;;;;10.70;95.39;101289.08;103627;1307;22549;-67
2022/10/17 06:19:11;;;;;;;50.90;27.70;;;;;;;10.72;95.47;101288.69;103349;1306;24253;-67
2022/10/17 06:21:42;;;;;;;52.80;26.50;;;;;;;10.76;95.76;101294.14;103407;1306;25931;-67
2022/10/17 06:24:13;;;;;;;45.70;24.90;;;;;;;10.79;95.74;101293.17;103201;1285;23010;-67
2022/10/17 06:26:46;;;;;;;48.60;25.20;;;;;;;10.81;95.83;101292.13;103631;1306;24420;-68
2022/10/17 06:29:18;;;;;;;49.50;26.00;;;;;;;10.84;95.79;101296.31;103586;1303;22522;-67
2022/10/17 06:31:50;;;;;;;51.70;28.00;;;;;;;10.86;95.87;101301.97;103346;1306;22462;-67
2022/10/17 06:34:21;;;;;;;54.90;28.70;;;;;;;10.89;96.16;101309.77;103648;1278;22523;-67
2022/10/17 06:36:53;;;;;;;47.00;26.60;;;;;;;10.93;96.48;101309.78;103391;1285;22459;-68
2022/10/17 06:39:25;;;;;;;55.90;26.30;;;;;;;10.97;96.76;101306.84;103243;1306;25689;-68
2022/10/17 06:41:57;;;;;;;52.40;28.60;;;;;;;11.00;96.83;101308.71;103480;1305;22599;-67
2022/10/17 06:44:30;;;;;;;51.20;27.50;;;;;;;11.05;96.92;101308.61;103369;1291;24371;-67
2022/10/17 06:47:02;;;;;;;52.00;26.30;;;;;;;11.09;97.00;101305.41;103417;1306;24516;-67
2022/10/17 06:49:35;;;;;;;55.90;30.30;;;;;;;11.14;97.40;101308.79;103196;1300;22608;-67
2022/10/17 06:52:07;;;;;;;54.50;31.30;;;;;;;11.20;97.74;101305.06;103077;1285;369913;-67
2022/10/17 06:54:38;;;;;;;59.20;32.00;;;;;;;11.26;98.12;101306.27;103389;1306;25494;-67
2022/10/17 06:57:09;;;;;;;62.90;34.10;;;;;;;11.33;98.70;101303.10;103250;1306;24291;-68
2022/10/17 06:59:41;;;;;;;65.30;31.40;;;;;;;11.40;98.95;101309.30;103457;1306;22473;-67
2022/10/17 07:02:13;;;;;;;55.00;31.00;;;;;;;11.50;99.65;101314.78;103455;1306;22511;-67
2022/10/17 07:04:45;;;;;;;57.30;30.80;;;;;;;11.58;99.26;101314.05;103404;1301;23213;-66
2022/10/17 07:07:16;;;;;;;52.70;28.60;;;;;;;11.64;99.53;101315.89;103223;1306;25748;-68
2022/10/17 07:09:48;;;;;;;55.50;30.40;;;;;;;11.69;99.43;101317.52;103315;1285;24383;-68
2022/10/17 07:12:19;;;;;;;55.60;29.90;;;;;;;11.76;99.49;101319.56;103401;1306;24409;-67
2022/10/17 07:14:51;;;;;;;55.50;32.20;;;;;;;11.83;99.68;101318.74;103388;1285;22413;-68
2022/10/17 07:17:22;;;;;;;52.40;29.20;;;;;;;11.89;99.98;101321.98;103432;1306;22479;-67
2022/10/17 07:19:54;;;;;;;59.80;32.30;;;;;;;11.96;99.97;101323.36;103323;1306;25409;-68
2022/10/17 07:22:25;;;;;;;60.50;30.30;;;;;;;12.04;100.00;101330.07;103626;1285;22577;-67
2022/10/17 07:24:57;;;;;;;52.10;30.90;;;;;;;12.14;100.00;101331.02;103362;1306;22703;-67
2022/10/17 07:27:28;;;;;;;56.20;30.90;;;;;;;12.23;100.00;101329.55;103310;1306;22452;-67
2022/10/17 07:30:00;;;;;;;48.40;27.00;;;;;;;12.31;100.00;101335.13;103419;1306;25277;-67
2022/10/17 07:32:31;;;;;;;53.50;29.10;;;;;;;12.44;100.00;101335.26;103273;1307;22535;-68
2022/10/17 07:35:03;;;;;;;56.60;29.60;;;;;;;12.55;100.00;101339.35;103476;1282;25328;-68
2022/10/17 07:37:35;;;;;;;51.10;28.00;;;;;;;12.65;100.00;101338.13;103431;1301;22871;-68
2022/10/17 07:40:08;;;;;;;49.00;26.60;;;;;;;12.75;100.00;101335.67;103481;1285;25536;-68
2022/10/17 07:42:40;;;;;;;50.90;26.60;;;;;;;12.87;100.00;101342.95;103396;1283;22469;-67
2022/10/17 07:45:12;;;;;;;49.10;27.10;;;;;;;12.97;100.00;101340.98;103393;1306;22670;-68
2022/10/17 07:47:43;;;;;;;55.10;29.80;;;;;;;13.09;100.00;101341.60;103491;1285;25454;-68
2022/10/17 07:50:15;;;;;;;50.60;27.80;;;;;;;13.18;100.00;101338.52;103453;1284;22735;-68
2022/10/17 07:52:46;;;;;;;53.60;28.90;;;;;;;13.27;100.00;101345.81;103428;1306;22488;-68
2022/10/17 07:55:18;;;;;;;53.40;28.00;;;;;;;13.37;100.00;101345.42;103369;1285;23210;-67
2022/10/17 07:57:51;;;;;;;50.10;27.90;;;;;;;13.46;100.00;101346.75;103375;1307;22521;-68
2022/10/17 08:00:22;;;;;;;48.60;27.30;;;;;;;13.53;100.00;101349.88;103341;1285;25265;-68
2022/10/17 08:02:54;;;;;;;43.10;23.70;;;;;;;13.60;100.00;101347.54;103397;1306;22705;-68
2022/10/17 08:05:25;;;;;;;40.40;23.20;;;;;;;13.68;100.00;101352.75;103421;1284;22855;-68
2022/10/17 08:07:57;;;;;;;47.30;25.50;;;;;;;13.77;100.00;101356.98;103389;1306;22948;-67
2022/10/17 08:10:28;;;;;;;45.90;23.30;;;;;;;13.84;100.00;101356.34;103291;1285;22595;-68
2022/10/17 08:13:00;;;;;;;42.30;22.90;;;;;;;13.91;100.00;101357.66;103378;1306;22481;-68
2022/10/17 08:15:32;;;;;;;43.60;22.90;;;;;;;14.03;100.00;101352.34;103280;1281;22488;-68
2022/10/17 08:18:03;;;;;;;40.50;22.50;;;;;;;14.13;99.84;101350.94;103310;1278;22515;-68
2022/10/17 08:20:35;;;;;;;42.20;22.90;;;;;;;14.23;99.61;101346.66;103542;1284;22619;-68
2022/10/17 08:23:06;;;;;;;37.30;21.00;;;;;;;14.32;99.77;101342.30;103394;1306;25311;-68
2022/10/17 08:25:39;;;;;;;41.90;21.30;;;;;;;14.43;99.44;101344.38;103410;1306;24316;-68
2022/10/17 08:28:11;;;;;;;37.40;21.80;;;;;;;14.54;99.44;101344.89;103397;1285;22476;-68
2022/10/17 08:30:42;;;;;;;36.10;19.70;;;;;;;14.63;99.36;101346.45;103424;1296;23857;-68
2022/10/17 08:33:14;;;;;;;38.90;22.40;;;;;;;14.74;99.09;101346.77;103383;1288;22548;-68
2022/10/17 08:35:45;;;;;;;37.60;20.80;;;;;;;14.82;98.83;101339.92;103339;1285;25389;-68
2022/10/17 08:38:17;;;;;;;45.00;21.90;;;;;;;14.90;98.74;101342.48;103412;1307;26345;-68
2022/10/17 08:40:50;;;;;;;40.60;21.80;;;;;;;14.98;98.60;101340.85;103445;1307;25381;-69
2022/10/17 08:43:34;;;;;;;37.90;19.60;;;;;;;15.07;98.34;101341.73;103337;1297;24234;-69
2022/10/17 08:46:08;;;;;;;39.50;21.40;;;;;;;15.18;98.18;101340.80;103371;1282;25536;-68
2022/10/17 08:48:43;;;;;;;35.80;20.50;;;;;;;15.28;98.09;101339.20;103460;1282;22598;-68
2022/10/17 08:51:17;;;;;;;33.80;18.30;;;;;;;15.36;97.72;101339.02;103340;1285;22602;-68
2022/10/17 08:53:54;;;;;;;37.00;20.50;;;;;;;15.42;97.58;101334.98;103324;1307;22504;-67
2022/10/17 08:56:27;;;;;;;41.20;20.90;;;;;;;15.50;97.40;101335.15;103407;1282;22523;-67
2022/10/17 08:59:00;;;;;;;34.90;18.30;;;;;;;15.57;97.12;101332.08;103463;1306;22465;-67
2022/10/17 09:01:42;;;;;;;33.80;18.60;;;;;;;15.68;97.02;101332.67;103508;1280;22458;-68
2022/10/17 09:04:33;;;;;;;37.10;18.50;;;;;;;15.79;96.81;101333.40;103830;1283;23194;-68
2022/10/17 09:07:13;;;;;;;39.90;20.20;;;;;;;15.89;96.54;101331.24;103721;1306;25364;-68
2022/10/17 09:09:55;;;;;;;36.40;18.60;;;;;;;15.96;96.30;101329.04;103766;1290;22637;-68
2022/10/17 09:12:31;;;;;;;29.20;14.90;;;;;;;16.05;96.31;101322.41;103705;1285;23229;-68
2022/10/17 09:15:38;;;;;;;32.20;18.00;;;;;;;16.15;96.20;101319.72;103659;1309;25524;-68
2022/10/17 09:18:15;;;;;;;31.10;16.30;;;;;;;16.27;95.99;101321.67;103485;1298;25341;-68
2022/10/17 09:20:51;;;;;;;30.30;15.90;;;;;;;16.40;95.48;101324.98;103453;1287;22496;-68
2022/10/17 09:23:26;;;;;;;32.60;16.10;;;;;;;16.52;95.16;101324.69;103491;1287;22603;-67
2022/10/17 09:26:00;;;;;;;30.50;16.00;;;;;;;16.63;94.77;101326.61;103441;1309;23916;-67
2022/10/17 09:28:35;;;;;;;31.90;16.70;;;;;;;16.77;94.73;101325.55;103337;1309;22504;-68
2022/10/17 09:31:12;;;;;;;32.60;16.10;;;;;;;16.86;94.26;101325.40;103181;1295;22506;-67
2022/10/17 09:33:45;;;;;;;29.80;15.70;;;;;;;16.93;94.21;101321.57;103136;1287;22668;-68
2022/10/17 09:36:20;;;;;;;31.30;15.60;;;;;;;17.01;93.94;101325.20;103078;1284;23219;-68
2022/10/17 09:38:55;;;;;;;28.80;14.00;;;;;;;17.08;93.12;101321.09;103054;1312;22450;-67
2022/10/17 09:41:32;;;;;;;27.50;13.70;;;;;;;17.19;92.61;101322.84;103088;1307;25370;-67
2022/10/17 09:44:14;;;;;;;28.60;14.10;;;;;;;17.37;92.46;101325.01;103041;1312;24262;-68
2022/10/17 09:46:51;;;;;;;27.30;14.00;;;;;;;17.52;92.07;101320.91;102950;1313;24267;-68
2022/10/17 09:49:31;;;;;;;26.30;12.60;;;;;;;17.65;91.19;101325.77;103008;1310;22653;-68
2022/10/17 09:52:11;;;;;;;28.80;13.60;;;;;;;17.80;90.77;101325.27;103216;1301;23087;-67
2022/10/17 09:54:46;;;;;;;28.50;13.10;;;;;;;17.94;90.49;101327.88;103008;1284;23268;-67
2022/10/17 09:57:19;;;;;;;24.20;11.90;;;;;;;18.03;90.15;101323.97;103229;1288;24260;-68
2022/10/17 09:59:59;;;;;;;25.00;12.70;;;;;;;18.07;89.40;101321.02;103229;1311;25377;-67
2022/10/17 10:02:35;;;;;;;23.40;12.30;;;;;;;18.10;89.28;101322.27;103421;1306;24179;-67
2022/10/17 10:05:16;;;;;;;22.70;11.30;;;;;;;18.15;88.75;101323.27;103231;1312;26516;-67
2022/10/17 10:08:04;;;;;;;26.20;11.70;;;;;;;18.24;88.51;101322.14;103276;1312;22926;-67
2022/10/17 10:10:35;;;;;;;28.90;11.30;;;;;;;18.32;88.28;101321.72;103104;1307;22475;-67
2022/10/17 10:13:20;;;;;;;25.60;12.10;;;;;;;18.39;87.93;101319.16;103286;1286;23105;-70
2022/10/17 10:15:52;;;;;;;26.60;12.80;;;;;;;18.46;87.67;101321.75;103165;1288;22519;-68
2022/10/17 10:18:32;;;;;;;24.00;11.10;;;;;;;18.51;87.47;101320.65;103381;1283;22733;-68
2022/10/17 10:21:14;;;;;;;25.60;12.00;;;;;;;18.62;86.80;101321.15;103250;1312;22607;-67
2022/10/17 10:24:02;;;;;;;19.90;9.90;;;;;;;18.69;86.40;101320.96;103368;1302;23911;-68
2022/10/17 10:26:38;;;;;;;23.10;9.70;;;;;;;18.79;85.78;101316.71;103190;1291;23561;-67
2022/10/17 10:29:23;;;;;;;19.90;9.90;;;;;;;18.91;85.19;101318.19;103178;1307;25563;-68
2022/10/17 10:31:55;;;;;;;22.80;10.90;;;;;;;19.01;85.06;101323.61;103160;1310;26002;-67
2022/10/17 10:34:30;;;;;;;21.40;10.40;;;;;;;19.14;84.87;101320.29;103141;1280;25467;-66
2022/10/17 10:37:05;;;;;;;22.50;10.70;;;;;;;19.22;84.17;101320.04;103238;1288;22477;-67
2022/10/17 10:39:50;;;;;;;21.90;10.40;;;;;;;19.30;83.89;101315.26;103146;1285;22560;-67
2022/10/17 10:42:28;;;;;;;21.80;10.70;;;;;;;19.39;83.55;101312.66;103258;1283;22467;-66
2022/10/17 10:45:05;;;;;;;22.60;10.80;;;;;;;19.44;82.96;101312.14;103190;1280;22482;-66
2022/10/17 10:47:37;;;;;;;22.20;9.60;;;;;;;19.47;82.46;101310.70;103218;1306;22921;-67
2022/10/17 10:50:23;;;;;;;21.80;9.60;;;;;;;19.51;82.53;101309.67;103245;1283;25857;-66
2022/10/17 10:53:05;;;;;;;19.90;9.00;;;;;;;19.58;81.65;101311.57;103239;1306;23744;-67
2022/10/17 10:55:45;;;;;;;20.30;9.40;;;;;;;19.71;81.66;101310.59;103282;1307;24370;-68
2022/10/17 10:58:26;;;;;;;20.10;9.70;;;;;;;19.75;81.35;101309.34;103297;1277;24259;-67
2022/10/17 11:01:00;;;;;;;24.80;10.80;;;;;;;19.84;81.26;101302.41;102983;1306;24407;-66
2022/10/17 11:03:39;;;;;;;23.40;9.50;;;;;;;19.86;80.76;101301.33;103149;1286;24348;-66
2022/10/17 11:06:19;;;;;;;19.60;9.80;;;;;;;19.90;80.75;101301.89;103211;1288;22533;-67
2022/10/17 11:08:58;;;;;;;20.10;10.20;;;;;;;19.92;80.43;101299.05;103252;1304;22457;-67
2022/10/17 11:11:32;;;;;;;21.40;11.10;;;;;;;19.95;80.08;101301.72;102888;1283;24240;-66
2022/10/17 11:14:09;;;;;;;25.60;10.90;;;;;;;19.95;79.88;101301.98;103057;1306;25501;-67
2022/10/17 11:16:46;;;;;;;21.70;11.10;;;;;;;19.96;79.62;101303.58;103071;1283;25568;-67
2022/10/17 11:19:23;;;;;;;25.60;10.00;;;;;;;20.01;79.29;101294.59;103066;1296;22607;-67
2022/10/17 11:22:07;;;;;;;23.20;10.50;;;;;;;20.04;78.65;101292.36;103011;1285;22863;-67
2022/10/17 11:24:46;;;;;;;20.80;10.10;;;;;;;20.10;78.75;101287.46;102942;1291;24459;-67
2022/10/17 11:27:18;;;;;;;22.30;11.10;;;;;;;20.17;78.47;101286.61;103145;1308;24448;-67
2022/10/17 11:29:50;;;;;;;21.90;10.90;;;;;;;20.24;78.45;101290.69;103239;1288;25920;-66
2022/10/17 11:32:26;;;;;;;24.90;10.20;;;;;;;20.29;78.45;101282.47;103094;1281;22769;-67
2022/10/17 11:35:01;;;;;;;20.60;10.10;;;;;;;20.32;78.09;101282.61;103048;1282;22482;-65